默认 日期 大小 文件数 浏览量 最新下载 xml
run!磁力链接相关资源由用户搜索指令自动获取,结果来源于网络,本站不存储任何资料,亦不承担任何责任,请于24小时内删除,搜索到20447个磁力,显示前4000条数据,用时5ms。
    {"README.txt": 225, "OWN TRACKER.url": 479, "Chief Architect Premier X5 15.1.0.25 (1-click run)(registred).exe": 132130823}
创建时间: 2018-11-02 09:33:38 大小:126.01 MB 文件数量:3 热度:16 最近下载:2025-08-22 16:38:01
    {"Simpsons, The - Hit & Run (USA).7z": 1165150683, "_ visit www.PORTALROMS.com for more games _.url": 52}
创建时间: 2018-11-02 12:10:04 大小:1.09 GB 文件数量:2 热度:13 最近下载:2025-01-23 02:58:04
    {"README.txt": 382, "OUR OWN TORRENT TRACKER.url": 500, "Torrent downloaded from The_Duck1.txt": 375, "Farming Simulator 15 v1.1.0.0 (2-click run).exe": 1381870495}
创建时间: 2018-11-02 12:45:55 大小:1.29 GB 文件数量:4 热度:19 最近下载:2025-03-09 08:15:02
    {"WWW.YTS.AG.jpg": 105827, "Woman.On.The.Run.1950.1080p.BluRay.x264-[YTS.AG].mp4": 1264704358}
创建时间: 2018-11-02 13:48:46 大小:1.18 GB 文件数量:2 热度:21 最近下载:2025-07-31 22:46:08
    {"www.YTS.AM.jpg": 58132, "Nowhere.To.Run.1993.720p.BluRay.x264-[YTS.AM].mp4": 848031498}
创建时间: 2018-11-02 15:08:59 大小:808.8 MB 文件数量:2 热度:15 最近下载:2024-07-25 11:49:01
    {"Subs": {"English.srt": 101475, "English SDH.srt": 116427}, "RARBG.com.mp4": 1016764, "RARBG.com.txt": 34, "Cat.Run.2.2014.1080p.BluRay.H264.AAC-RARBG.mp4": 1969537870, "Cat.Run.2.2014.1080p.BluRay.H264.AAC-RARBG.nfo": 2253}
创建时间: 2018-11-02 16:42:22 大小:1.84 GB 文件数量:6 热度:46 最近下载:2025-08-12 07:28:02
    {"Mac版": {"credits.html": 876187, "succubus.app": {"Contents": {"MacOS": {"nwjs": 8536}, "PkgInfo": 8, "Resources": {"app.nw": 182910855, "nw.icns": 360065, "AHEM____.TTF": 12480, "missingImage.png": 372, "ChromiumAATTest.ttf": 3020, "textAreaResizeCorner. ...
创建时间: 2018-11-02 17:02:25 大小:800.19 MB 文件数量:359 热度:21 最近下载:2025-10-18 06:04:01
    {"Run.Fat.Boy.Run.2007.BDRip.XviD.BGAUDiO-SiSO.avi": 1364296522, "Run.Fat.Boy.Run.2007.BDRip.XviD.BGAUDiO-SiSO.jpg": 418420, "Run.Fat.Boy.Run.2007.BDRip.XviD.BGAUDiO-SiSO.nfo": 5704}
创建时间: 2018-11-02 18:39:28 大小:1.27 GB 文件数量:3 热度:13 最近下载:2024-11-07 16:44:02
    {"Run Fast. Eat Slow. - Nourishing Recipes for.epub": 49139165}
创建时间: 2018-11-02 18:52:13 大小:46.86 MB 文件数量:1 热度:33 最近下载:2025-08-20 14:46:01
    {"Need For Speed The Run.FUJIN.BLES01298.Install.Rus_1.pkg": 4292548800, "Need For Speed The Run.FUJIN.BLES01298.Install.Rus_2.pkg": 4294954192, "Need For Speed The Run.FUJIN.BLES01298.Install.Rus_3.pkg": 1128225424}
创建时间: 2018-11-02 18:57:26 大小:9.05 GB 文件数量:3 热度:15 最近下载:2025-02-25 19:53:04
    {"Tremors.S01E06.Hit.And.Run.DVDRip.XviD-OSiTV.avi": 366725122, "Tremors.S01E06.Hit.And.Run.DVDRip.XviD-OSiTV.srt": 53603}
创建时间: 2018-11-02 19:19:56 大小:349.79 MB 文件数量:2 热度:13 最近下载:2025-04-18 23:47:02
    ... [flac].m3u": 258, "East Broadway Run Down.cue": 663, "East Broadway ... Run Down.log": 1708, "03 - We ... Disguise.flac": 79277545, "East Broadway Run Down_flac.CUE": 666, "01 - East ...
创建时间: 2018-11-02 19:45:54 大小:300.41 MB 文件数量:14 热度:16 最近下载:2025-03-09 04:49:03
    {"Torrent downloaded from The_Duck1.txt": 382, "Euro Truck Simulator 2 v1.22.0.3 (29 DLC)(2-click run).exe": 2503520205}
创建时间: 2018-11-02 20:18:24 大小:2.33 GB 文件数量:2 热度:19 最近下载:2025-07-13 15:55:02
    ... 1937176, "USMC cadence-I Can Run To Iraq.mp3": 2772076, " ... Destination Unknown.mp3": 2301952}, "Run to Cadence With the U ... }, "Run_To_Cadence_With_The_U.S._Marines__Vol._1": {"Run To Cadence With The U ... , Vol. 3 - 08 - Run Me, Run Me, Run Me.mp3": 1440716, "U ...
创建时间: 2018-11-02 21:11:45 大小:288.77 MB 文件数量:113 热度:23 最近下载:2025-10-14 00:28:02
    {"Cover.jpg": 315659, "10. SIL-A — Luv Song [Prod. By C4].mp3": 2914261, "04. SIL-A — 6000 Euro [Prod. By Lil Smooky].mp3": 3949546, "01. SIL-A — В Бегах [Prod. By DJ D.A.].mp3": 2949370, "02. SIL-A — El Chapo [Prod. By Shadow Playaz].mp3": 3308397, "05. ...
创建时间: 2018-11-02 22:44:59 大小:38 MB 文件数量:12 热度:11 最近下载:2023-04-07 10:10:05
    {"Run DMC": {"5-21-87": {"5- ... .flac": 28057069, "11. Hit It Run.flac": 26124216, "12. Peter Piper ...
创建时间: 2018-11-02 23:12:56 大小:1.85 GB 文件数量:101 热度:25 最近下载:2025-08-02 11:55:10
    {"Scans": {"CD.jpg": 1614292, "Front.jpg": 4908372, "Inside.jpg": 4438472}, "Carl Verheyen - Mustang Run.cue": 1383, "Carl Verheyen - Mustang Run.log": 6962, "Carl Verheyen - Mustang Run.flac": 323760432}
创建时间: 2018-11-03 00:17:17 大小:319.22 MB 文件数量:6 热度:15 最近下载:2025-07-10 03:29:01
    ... "1975 - Born to Run (30th Anniversary Edition).aucdtect ... Bruce Springsteen - Born to Run (30th Anniversary Edition).log": ... Bruce Springsteen - Born to Run (30th Anniversary Edition).accurip": ... "Bruce Springsteen - Born to Run (30th Anniversary Edition).cue": ...
创建时间: 2018-11-03 00:29:32 大小:245.88 MB 文件数量:22 热度:21 最近下载:2023-04-07 11:40:05
    {"README.txt": 357, "Magic DVD Copier v8.1.0 (2-click run)(Registered).exe": 6931899, "Torrent downloaded from The_Duck1 torrents at BTScene.net.txt": 124}
创建时间: 2018-11-03 02:00:15 大小:6.61 MB 文件数量:3 热度:14 最近下载:2025-01-02 12:42:06
    {"www.YTS.AM.jpg": 58132, "Pippi.On.The.Run.1970.1080p.BluRay.x264-[YTS.AM].mp4": 1709233399}
创建时间: 2018-11-03 02:02:39 大小:1.59 GB 文件数量:2 热度:14 最近下载:2024-12-25 09:40:01